PWSweather.com
Personal Weather Stations
Station Observations
KPAMECHA5
Mechanicsburg, PA 17050

Mechanicsburg, PA 17050

Lat: 40.21531, Lon: -77.0395

Elevation: 430

Station Type: Davis 6322

http://MechanicsburgWeather.com

Latest ConditionsUpdated 8:00:08 PM EST Friday, Nov 28, 2014
Currently Today's Max Today's Min Today's Average
Temperature 25.6°F-3.6°C 36.2°F2.3°C 25.6°F-3.6°C 32.4°F0.2°C
Dew Point 18.1°F-7.7°C 27.1°F-2.7°C 18.1°F-7.7°C 22.1°F-5.5°C
Winds Calm Calm 7.3 mph WNW11.7 kmh WNW - 2.5 mph 4.0 kmh
Wind Gusts 1.0 mph1.6 kmh 15.0 mph24.1 kmh - -
Humidity 73% 77% 53% 66%
Pressure 30.25 in1024.4 mb 30.25 in1024.4 mb 30.10 in1019.3 mb -
Precipitation - 0.07 in1.8 mm - -
Hour Temp Dew Point Humidity Winds Wind Gusts Pressure Precip Precip Rate Daily Precip Total
08:00 PM 25.6°F-3.6°C 18.1°F-7.7°C 73% Calm Calm 1.0 mph1.6 kmh 30.25 in1024.4 mb 0.00 in0.0 mm 0.00 in/hr0.0 mm/hr 0.07 in1.8 mm
07:50 PM 25.7°F-3.5°C 18.3°F-7.6°C 73% Calm Calm -- 30.25 in1024.4 mb 0.00 in0.0 mm 0.00 in/hr0.0 mm/hr 0.07 in1.8 mm
07:40 PM 25.6°F-3.6°C 18.5°F-7.5°C 74% Calm Calm -- 30.24 in1024.0 mb 0.00 in0.0 mm 0.00 in/hr0.0 mm/hr 0.07 in1.8 mm
07:30 PM 25.8°F-3.4°C 18.3°F-7.6°C 73% Calm Calm -- 30.24 in1024.0 mb 0.00 in0.0 mm 0.00 in/hr0.0 mm/hr 0.07 in1.8 mm
07:20 PM 26.1°F-3.3°C 18.6°F-7.4°C 73% Calm Calm -- 30.23 in1023.7 mb 0.00 in0.0 mm 0.00 in/hr0.0 mm/hr 0.07 in1.8 mm
07:10 PM 26.3°F-3.2°C 18.8°F-7.3°C 73% Calm Calm -- 30.23 in1023.7 mb 0.00 in0.0 mm 0.00 in/hr0.0 mm/hr 0.07 in1.8 mm
07:00 PM 26.7°F-2.9°C 18.6°F-7.4°C 71% Calm Calm -- 30.24 in1024.0 mb 0.00 in0.0 mm 0.00 in/hr0.0 mm/hr 0.07 in1.8 mm
06:50 PM 27.0°F-2.8°C 18.5°F-7.5°C 70% Calm Calm -- 30.23 in1023.7 mb 0.00 in0.0 mm 0.00 in/hr0.0 mm/hr 0.07 in1.8 mm
06:40 PM 27.2°F-2.7°C 18.7°F-7.4°C 70% Calm Calm -- 30.23 in1023.7 mb 0.00 in0.0 mm 0.00 in/hr0.0 mm/hr 0.07 in1.8 mm
06:30 PM 27.7°F-2.4°C 18.8°F-7.3°C 69% Calm Calm -- 30.23 in1023.7 mb 0.00 in0.0 mm 0.00 in/hr0.0 mm/hr 0.07 in1.8 mm
06:20 PM 28.1°F-2.2°C 18.5°F-7.5°C 67% Calm Calm -- 30.22 in1023.4 mb 0.00 in0.0 mm 0.00 in/hr0.0 mm/hr 0.07 in1.8 mm
06:10 PM 28.5°F-1.9°C 18.9°F-7.3°C 67% Calm Calm -- 30.22 in1023.4 mb 0.00 in0.0 mm 0.00 in/hr0.0 mm/hr 0.07 in1.8 mm
06:00 PM 28.8°F-1.8°C 18.5°F-7.5°C 65% Calm Calm -- 30.23 in1023.7 mb 0.00 in0.0 mm 0.00 in/hr0.0 mm/hr 0.07 in1.8 mm
05:50 PM 29.2°F-1.6°C 18.5°F-7.5°C 64% Calm Calm -- 30.23 in1023.7 mb 0.00 in0.0 mm 0.00 in/hr0.0 mm/hr 0.07 in1.8 mm
05:40 PM 29.5°F-1.4°C 18.8°F-7.3°C 64% Calm Calm -- 30.22 in1023.4 mb 0.00 in0.0 mm 0.00 in/hr0.0 mm/hr 0.07 in1.8 mm
05:30 PM 29.9°F-1.2°C 19.2°F-7.1°C 64% Calm Calm -- 30.22 in1023.4 mb 0.00 in0.0 mm 0.00 in/hr0.0 mm/hr 0.07 in1.8 mm
05:20 PM 30.3°F-0.9°C 18.8°F-7.3°C 62% Calm Calm -- 30.22 in1023.4 mb 0.00 in0.0 mm 0.00 in/hr0.0 mm/hr 0.07 in1.8 mm
05:10 PM 30.9°F-0.6°C 19.0°F-7.2°C 61% 0.1 mph NW0.2 kmh NW 1.0 mph1.6 kmh 30.22 in1023.4 mb 0.00 in0.0 mm 0.00 in/hr0.0 mm/hr 0.07 in1.8 mm
05:00 PM 31.6°F-0.2°C 19.3°F-7.1°C 60% Calm Calm -- 30.22 in1023.4 mb 0.00 in0.0 mm 0.00 in/hr0.0 mm/hr 0.07 in1.8 mm
04:50 PM 32.1°F0.1°C 19.0°F-7.2°C 58% Calm Calm -- 30.21 in1023.0 mb 0.00 in0.0 mm 0.00 in/hr0.0 mm/hr 0.07 in1.8 mm
04:40 PM 32.6°F0.3°C 19.5°F-6.9°C 58% Calm Calm 1.0 mph1.6 kmh 30.21 in1023.0 mb 0.00 in0.0 mm 0.00 in/hr0.0 mm/hr 0.07 in1.8 mm
04:30 PM 33.4°F0.8°C 19.8°F-6.8°C 57% 0.2 mph NW0.3 kmh NW 1.0 mph1.6 kmh 30.21 in1023.0 mb 0.00 in0.0 mm 0.00 in/hr0.0 mm/hr 0.07 in1.8 mm
04:20 PM 34.1°F1.2°C 19.6°F-6.9°C 55% 2.5 mph NW4.0 kmh NW 4.0 mph6.4 kmh 30.21 in1023.0 mb 0.00 in0.0 mm 0.00 in/hr0.0 mm/hr 0.07 in1.8 mm
04:10 PM 34.5°F1.4°C 19.6°F-6.9°C 54% 2.4 mph NW3.9 kmh NW 6.0 mph9.7 kmh 30.21 in1023.0 mb 0.00 in0.0 mm 0.00 in/hr0.0 mm/hr 0.07 in1.8 mm
04:00 PM 35.5°F1.9°C 20.0°F-6.7°C 53% 2.0 mph NNW3.2 kmh NNW 6.0 mph9.7 kmh 30.20 in1022.7 mb 0.01 in0.3 mm 0.01 in/hr0.3 mm/hr 0.07 in1.8 mm
03:50 PM 35.3°F1.8°C 20.7°F-6.3°C 55% 1.9 mph W3.1 kmh W 6.0 mph9.7 kmh 30.20 in1022.7 mb 0.01 in0.3 mm 0.06 in/hr1.5 mm/hr 0.07 in1.8 mm
03:40 PM 34.8°F1.6°C 20.3°F-6.5°C 55% 1.2 mph NW1.9 kmh NW 3.0 mph4.8 kmh 30.20 in1022.7 mb 0.00 in0.0 mm 0.00 in/hr0.0 mm/hr 0.06 in1.5 mm
03:30 PM 34.9°F1.6°C 20.0°F-6.7°C 54% 3.4 mph NW5.5 kmh NW 5.0 mph8.0 kmh 30.20 in1022.7 mb 0.00 in0.0 mm 0.00 in/hr0.0 mm/hr 0.06 in1.5 mm
03:20 PM 35.3°F1.8°C 20.3°F-6.5°C 54% 4.9 mph NW7.9 kmh NW 7.0 mph11.3 kmh 30.20 in1022.7 mb 0.00 in0.0 mm 0.00 in/hr0.0 mm/hr 0.06 in1.5 mm
03:10 PM 35.6°F2.0°C 20.6°F-6.3°C 54% 3.0 mph NW4.8 kmh NW 8.0 mph12.9 kmh 30.20 in1022.7 mb 0.00 in0.0 mm 0.00 in/hr0.0 mm/hr 0.06 in1.5 mm
03:00 PM 35.6°F2.0°C 21.0°F-6.1°C 55% 0.8 mph WNW1.3 kmh WNW 1.0 mph1.6 kmh 30.20 in1022.7 mb 0.00 in0.0 mm 0.00 in/hr0.0 mm/hr 0.06 in1.5 mm
02:50 PM 35.4°F1.9°C 20.9°F-6.2°C 55% 2.5 mph SW4.0 kmh SW 8.0 mph12.9 kmh 30.19 in1022.4 mb 0.00 in0.0 mm 0.00 in/hr0.0 mm/hr 0.06 in1.5 mm
02:40 PM 36.0°F2.2°C 20.9°F-6.2°C 54% 3.6 mph NNW5.8 kmh NNW 8.0 mph12.9 kmh 30.19 in1022.4 mb 0.01 in0.3 mm 0.06 in/hr1.5 mm/hr 0.06 in1.5 mm
02:30 PM 36.2°F2.3°C 22.0°F-5.6°C 56% 3.4 mph S5.5 kmh S 6.0 mph9.7 kmh 30.19 in1022.4 mb 0.00 in0.0 mm 0.00 in/hr0.0 mm/hr 0.05 in1.3 mm
02:20 PM 35.8°F2.1°C 22.0°F-5.6°C 57% 1.2 mph WNW1.9 kmh WNW 3.0 mph4.8 kmh 30.19 in1022.4 mb 0.00 in0.0 mm 0.00 in/hr0.0 mm/hr 0.05 in1.3 mm
02:10 PM 35.9°F2.2°C 21.7°F-5.7°C 56% 4.3 mph NW6.9 kmh NW 10.0 mph16.1 kmh 30.19 in1022.4 mb 0.00 in0.0 mm 0.00 in/hr0.0 mm/hr 0.05 in1.3 mm
02:00 PM 36.0°F2.2°C 21.8°F-5.7°C 56% 4.4 mph NW7.1 kmh NW 7.0 mph11.3 kmh 30.19 in1022.4 mb 0.00 in0.0 mm 0.00 in/hr0.0 mm/hr 0.05 in1.3 mm
01:50 PM 35.2°F1.8°C 22.3°F-5.4°C 59% 2.7 mph N4.3 kmh N 7.0 mph11.3 kmh 30.20 in1022.7 mb 0.01 in0.3 mm 0.06 in/hr1.5 mm/hr 0.05 in1.3 mm
01:40 PM 34.2°F1.2°C 21.7°F-5.7°C 60% 1.4 mph N2.3 kmh N 5.0 mph8.0 kmh 30.20 in1022.7 mb 0.00 in0.0 mm 0.00 in/hr0.0 mm/hr 0.04 in1.0 mm
01:30 PM 33.9°F1.1°C 21.5°F-5.8°C 60% 3.2 mph N5.1 kmh N 9.0 mph14.5 kmh 30.20 in1022.7 mb 0.00 in0.0 mm 0.00 in/hr0.0 mm/hr 0.04 in1.0 mm
01:20 PM 34.3°F1.3°C 21.4°F-5.9°C 59% 6.2 mph NW10.0 kmh NW 9.0 mph14.5 kmh 30.20 in1022.7 mb 0.00 in0.0 mm 0.00 in/hr0.0 mm/hr 0.04 in1.0 mm
01:10 PM 33.9°F1.1°C 21.5°F-5.8°C 60% 6.5 mph NNW10.5 kmh NNW 10.0 mph16.1 kmh 30.20 in1022.7 mb 0.00 in0.0 mm 0.00 in/hr0.0 mm/hr 0.04 in1.0 mm
01:00 PM 33.9°F1.1°C 21.1°F-6.1°C 59% 6.8 mph NNW10.9 kmh NNW 13.0 mph20.9 kmh 30.21 in1023.0 mb 0.00 in0.0 mm 0.00 in/hr0.0 mm/hr 0.04 in1.0 mm
12:50 PM 34.4°F1.3°C 21.1°F-6.1°C 58% 6.1 mph NNE9.8 kmh NNE 11.0 mph17.7 kmh 30.21 in1023.0 mb 0.00 in0.0 mm 0.00 in/hr0.0 mm/hr 0.04 in1.0 mm
12:40 PM 34.3°F1.3°C 21.0°F-6.1°C 58% 5.3 mph N8.5 kmh N 11.0 mph17.7 kmh 30.21 in1023.0 mb 0.00 in0.0 mm 0.00 in/hr0.0 mm/hr 0.04 in1.0 mm
12:30 PM 33.8°F1.0°C 20.6°F-6.3°C 58% 2.6 mph SW4.2 kmh SW 10.0 mph16.1 kmh 30.21 in1023.0 mb 0.00 in0.0 mm 0.00 in/hr0.0 mm/hr 0.04 in1.0 mm
12:20 PM 33.9°F1.1°C 21.1°F-6.1°C 59% 3.5 mph WSW5.6 kmh WSW 6.0 mph9.7 kmh 30.21 in1023.0 mb 0.00 in0.0 mm 0.00 in/hr0.0 mm/hr 0.04 in1.0 mm
12:10 PM 34.1°F1.2°C 20.8°F-6.2°C 58% 7.3 mph NW11.7 kmh NW 11.0 mph17.7 kmh 30.22 in1023.4 mb 0.01 in0.3 mm 0.06 in/hr1.5 mm/hr 0.04 in1.0 mm
12:00 PM 34.4°F1.3°C 21.1°F-6.1°C 58% 7.2 mph N11.6 kmh N 15.0 mph24.1 kmh 30.22 in1023.4 mb 0.00 in0.0 mm 0.00 in/hr0.0 mm/hr 0.03 in0.8 mm
11:50 AM 34.8°F1.6°C 21.9°F-5.6°C 59% 5.6 mph WSW9.0 kmh WSW 11.0 mph17.7 kmh 30.22 in1023.4 mb 0.00 in0.0 mm 0.00 in/hr0.0 mm/hr 0.03 in0.8 mm
11:40 AM 34.1°F1.2°C 22.0°F-5.6°C 61% 0.3 mph SW0.5 kmh SW 2.0 mph3.2 kmh 30.22 in1023.4 mb 0.00 in0.0 mm 0.00 in/hr0.0 mm/hr 0.03 in0.8 mm
11:30 AM 33.9°F1.1°C 20.7°F-6.3°C 58% 4.3 mph NNW6.9 kmh NNW 8.0 mph12.9 kmh 30.23 in1023.7 mb 0.00 in0.0 mm 0.00 in/hr0.0 mm/hr 0.03 in0.8 mm
11:20 AM 34.0°F1.1°C 20.8°F-6.2°C 58% 2.1 mph NW3.4 kmh NW 6.0 mph9.7 kmh 30.23 in1023.7 mb 0.00 in0.0 mm 0.00 in/hr0.0 mm/hr 0.03 in0.8 mm
11:10 AM 34.2°F1.2°C 21.4°F-5.9°C 59% 2.2 mph NNW3.5 kmh NNW 12.0 mph19.3 kmh 30.23 in1023.7 mb 0.00 in0.0 mm 0.00 in/hr0.0 mm/hr 0.03 in0.8 mm
11:00 AM 34.1°F1.2°C 20.8°F-6.2°C 58% 3.6 mph NW5.8 kmh NW 11.0 mph17.7 kmh 30.23 in1023.7 mb 0.00 in0.0 mm 0.00 in/hr0.0 mm/hr 0.03 in0.8 mm
10:50 AM 34.2°F1.2°C 20.5°F-6.4°C 57% 6.0 mph NW9.7 kmh NW 9.0 mph14.5 kmh 30.24 in1024.0 mb 0.01 in0.3 mm 0.06 in/hr1.5 mm/hr 0.03 in0.8 mm
10:40 AM 33.7°F0.9°C 20.1°F-6.6°C 57% 4.6 mph NW7.4 kmh NW 11.0 mph17.7 kmh 30.24 in1024.0 mb 0.00 in0.0 mm 0.00 in/hr0.0 mm/hr 0.02 in0.5 mm
10:30 AM 33.8°F1.0°C 20.2°F-6.6°C 57% 4.3 mph N6.9 kmh N 10.0 mph16.1 kmh 30.24 in1024.0 mb 0.00 in0.0 mm 0.00 in/hr0.0 mm/hr 0.02 in0.5 mm
10:20 AM 33.7°F0.9°C 20.1°F-6.6°C 57% 7.3 mph WNW11.7 kmh WNW 12.0 mph19.3 kmh 30.24 in1024.0 mb 0.00 in0.0 mm 0.00 in/hr0.0 mm/hr 0.02 in0.5 mm
10:10 AM 34.2°F1.2°C 21.0°F-6.1°C 58% 3.8 mph W6.1 kmh W 6.0 mph9.7 kmh 30.23 in1023.7 mb 0.01 in0.3 mm 0.06 in/hr1.5 mm/hr 0.02 in0.5 mm
10:00 AM 34.4°F1.3°C 20.7°F-6.3°C 57% 7.1 mph NNW11.4 kmh NNW 12.0 mph19.3 kmh 30.23 in1023.7 mb 0.00 in0.0 mm 0.00 in/hr0.0 mm/hr 0.01 in0.3 mm
09:50 AM 34.3°F1.3°C 21.4°F-5.9°C 59% 2.6 mph S4.2 kmh S 5.0 mph8.0 kmh 30.23 in1023.7 mb 0.00 in0.0 mm 0.00 in/hr0.0 mm/hr 0.01 in0.3 mm
09:40 AM 33.6°F0.9°C 20.8°F-6.2°C 59% 6.8 mph NW10.9 kmh NW 12.0 mph19.3 kmh 30.23 in1023.7 mb 0.00 in0.0 mm 0.00 in/hr0.0 mm/hr 0.01 in0.3 mm
09:30 AM 33.4°F0.8°C 21.0°F-6.1°C 60% 4.3 mph NW6.9 kmh NW 7.0 mph11.3 kmh 30.23 in1023.7 mb 0.00 in0.0 mm 0.00 in/hr0.0 mm/hr 0.01 in0.3 mm
09:20 AM 33.3°F0.7°C 21.7°F-5.7°C 62% 4.7 mph NW7.6 kmh NW 11.0 mph17.7 kmh 30.23 in1023.7 mb 0.00 in0.0 mm 0.00 in/hr0.0 mm/hr 0.01 in0.3 mm
09:10 AM 33.3°F0.7°C 21.3°F-5.9°C 61% 6.9 mph NW11.1 kmh NW 12.0 mph19.3 kmh 30.23 in1023.7 mb 0.00 in0.0 mm 0.00 in/hr0.0 mm/hr 0.01 in0.3 mm
09:00 AM 33.2°F0.7°C 22.0°F-5.6°C 63% 5.8 mph SW9.3 kmh SW 8.0 mph12.9 kmh 30.23 in1023.7 mb 0.00 in0.0 mm 0.00 in/hr0.0 mm/hr 0.01 in0.3 mm
08:50 AM 32.9°F0.5°C 22.4°F-5.3°C 65% 4.7 mph NW7.6 kmh NW 7.0 mph11.3 kmh 30.22 in1023.4 mb 0.00 in0.0 mm 0.00 in/hr0.0 mm/hr 0.01 in0.3 mm
08:40 AM 32.6°F0.3°C 22.5°F-5.3°C 66% 6.6 mph N10.6 kmh N 10.0 mph16.1 kmh 30.22 in1023.4 mb 0.01 in0.3 mm 0.06 in/hr1.5 mm/hr 0.01 in0.3 mm
08:30 AM 32.4°F0.2°C 21.9°F-5.6°C 65% 5.9 mph W9.5 kmh W 9.0 mph14.5 kmh 30.21 in1023.0 mb 0.00 in0.0 mm 0.00 in/hr0.0 mm/hr 0.00 in0.0 mm
08:20 AM 32.3°F0.2°C 22.2°F-5.4°C 66% 6.1 mph NNW9.8 kmh NNW 11.0 mph17.7 kmh 30.21 in1023.0 mb 0.00 in0.0 mm 0.00 in/hr0.0 mm/hr 0.00 in0.0 mm
08:10 AM 31.9°F-0.1°C 22.2°F-5.4°C 67% 3.1 mph WNW5.0 kmh WNW 6.0 mph9.7 kmh 30.21 in1023.0 mb 0.00 in0.0 mm 0.00 in/hr0.0 mm/hr 0.00 in0.0 mm
08:00 AM 31.6°F-0.2°C 22.2°F-5.4°C 68% 1.6 mph NW2.6 kmh NW 6.0 mph9.7 kmh 30.21 in1023.0 mb 0.00 in0.0 mm 0.00 in/hr0.0 mm/hr 0.00 in0.0 mm
07:50 AM 31.2°F-0.4°C 22.2°F-5.4°C 69% 2.3 mph NW3.7 kmh NW 5.0 mph8.0 kmh 30.21 in1023.0 mb 0.00 in0.0 mm 0.00 in/hr0.0 mm/hr 0.00 in0.0 mm
07:40 AM 31.1°F-0.5°C 22.1°F-5.5°C 69% 3.2 mph WNW5.1 kmh WNW 6.0 mph9.7 kmh 30.20 in1022.7 mb 0.00 in0.0 mm 0.00 in/hr0.0 mm/hr 0.00 in0.0 mm
07:30 AM 31.1°F-0.5°C 22.5°F-5.3°C 70% 3.3 mph W5.3 kmh W 9.0 mph14.5 kmh 30.20 in1022.7 mb 0.00 in0.0 mm 0.00 in/hr0.0 mm/hr 0.00 in0.0 mm
07:20 AM 30.9°F-0.6°C 22.6°F-5.2°C 71% 2.6 mph NW4.2 kmh NW 6.0 mph9.7 kmh 30.20 in1022.7 mb 0.00 in0.0 mm 0.00 in/hr0.0 mm/hr 0.00 in0.0 mm
07:10 AM 30.3°F-0.9°C 23.0°F-5.0°C 74% 5.8 mph W9.3 kmh W 11.0 mph17.7 kmh 30.19 in1022.4 mb 0.00 in0.0 mm 0.00 in/hr0.0 mm/hr 0.00 in0.0 mm
07:00 AM 30.1°F-1.1°C 23.8°F-4.6°C 77% 1.0 mph W1.6 kmh W 6.0 mph9.7 kmh 30.19 in1022.4 mb 0.00 in0.0 mm 0.00 in/hr0.0 mm/hr 0.00 in0.0 mm
06:50 AM 30.8°F-0.7°C 24.4°F-4.2°C 77% 0.7 mph W1.1 kmh W 2.0 mph3.2 kmh 30.19 in1022.4 mb 0.00 in0.0 mm 0.00 in/hr0.0 mm/hr 0.00 in0.0 mm
06:40 AM 30.8°F-0.7°C 23.2°F-4.9°C 73% 3.8 mph N6.1 kmh N 9.0 mph14.5 kmh 30.19 in1022.4 mb 0.00 in0.0 mm 0.00 in/hr0.0 mm/hr 0.00 in0.0 mm
06:30 AM 31.0°F-0.6°C 23.6°F-4.7°C 74% 0.8 mph NNW1.3 kmh NNW 5.0 mph8.0 kmh 30.18 in1022.0 mb 0.00 in0.0 mm 0.00 in/hr0.0 mm/hr 0.00 in0.0 mm
06:20 AM 30.6°F-0.8°C 23.0°F-5.0°C 73% 2.4 mph NW3.9 kmh NW 5.0 mph8.0 kmh 30.18 in1022.0 mb 0.00 in0.0 mm 0.00 in/hr0.0 mm/hr 0.00 in0.0 mm
06:10 AM 30.2°F-1.0°C 22.9°F-5.1°C 74% 2.8 mph NW4.5 kmh NW 7.0 mph11.3 kmh 30.16 in1021.3 mb 0.00 in0.0 mm 0.00 in/hr0.0 mm/hr 0.00 in0.0 mm
06:00 AM 30.7°F-0.7°C 23.0°F-5.0°C 73% 0.8 mph SW1.3 kmh SW 5.0 mph8.0 kmh 30.16 in1021.3 mb 0.00 in0.0 mm 0.00 in/hr0.0 mm/hr 0.00 in0.0 mm
05:50 AM 30.9°F-0.6°C 23.3°F-4.8°C 73% 0.3 mph NW0.5 kmh NW 2.0 mph3.2 kmh 30.15 in1021.0 mb 0.00 in0.0 mm 0.00 in/hr0.0 mm/hr 0.00 in0.0 mm
05:40 AM 31.2°F-0.4°C 23.5°F-4.7°C 73% 0.2 mph W0.3 kmh W 2.0 mph3.2 kmh 30.15 in1021.0 mb 0.00 in0.0 mm 0.00 in/hr0.0 mm/hr 0.00 in0.0 mm
05:30 AM 31.6°F-0.2°C 23.9°F-4.5°C 73% 0.6 mph WNW1.0 kmh WNW 5.0 mph8.0 kmh 30.15 in1021.0 mb 0.00 in0.0 mm 0.00 in/hr0.0 mm/hr 0.00 in0.0 mm
05:20 AM 32.1°F0.1°C 24.1°F-4.4°C 72% 0.2 mph W0.3 kmh W 2.0 mph3.2 kmh 30.14 in1020.7 mb 0.00 in0.0 mm 0.00 in/hr0.0 mm/hr 0.00 in0.0 mm
05:10 AM 32.5°F0.3°C 24.5°F-4.2°C 72% 1.7 mph WNW2.7 kmh WNW 2.0 mph3.2 kmh 30.14 in1020.7 mb 0.00 in0.0 mm 0.00 in/hr0.0 mm/hr 0.00 in0.0 mm
05:00 AM 32.9°F0.5°C 24.5°F-4.2°C 71% 1.2 mph WSW1.9 kmh WSW 3.0 mph4.8 kmh 30.14 in1020.7 mb 0.00 in0.0 mm 0.00 in/hr0.0 mm/hr 0.00 in0.0 mm
04:50 AM 33.0°F0.6°C 24.6°F-4.1°C 71% 3.1 mph WNW5.0 kmh WNW 3.0 mph4.8 kmh 30.14 in1020.7 mb 0.00 in0.0 mm 0.00 in/hr0.0 mm/hr 0.00 in0.0 mm
04:40 AM 32.8°F0.4°C 24.5°F-4.2°C 71% 3.2 mph WNW5.1 kmh WNW 8.0 mph12.9 kmh 30.13 in1020.3 mb 0.00 in0.0 mm 0.00 in/hr0.0 mm/hr 0.00 in0.0 mm
04:30 AM 32.5°F0.3°C 24.5°F-4.2°C 72% 5.3 mph NW8.5 kmh NW 9.0 mph14.5 kmh 30.13 in1020.3 mb 0.00 in0.0 mm 0.00 in/hr0.0 mm/hr 0.00 in0.0 mm
04:20 AM 32.5°F0.3°C 24.5°F-4.2°C 72% 3.4 mph N5.5 kmh N 9.0 mph14.5 kmh 30.12 in1020.0 mb 0.00 in0.0 mm 0.00 in/hr0.0 mm/hr 0.00 in0.0 mm
04:10 AM 32.4°F0.2°C 24.7°F-4.1°C 73% 2.5 mph N4.0 kmh N 6.0 mph9.7 kmh 30.12 in1020.0 mb 0.00 in0.0 mm 0.00 in/hr0.0 mm/hr 0.00 in0.0 mm
04:00 AM 32.0°F0.0°C 24.6°F-4.1°C 74% 1.4 mph NNW2.3 kmh NNW 7.0 mph11.3 kmh 30.12 in1020.0 mb 0.00 in0.0 mm 0.00 in/hr0.0 mm/hr 0.00 in0.0 mm
03:50 AM 31.9°F-0.1°C 24.9°F-3.9°C 75% 0.5 mph SW0.8 kmh SW 6.0 mph9.7 kmh 30.11 in1019.6 mb 0.00 in0.0 mm 0.00 in/hr0.0 mm/hr 0.00 in0.0 mm
03:40 AM 32.0°F0.0°C 25.0°F-3.9°C 75% 2.1 mph WSW3.4 kmh WSW 4.0 mph6.4 kmh 30.11 in1019.6 mb 0.00 in0.0 mm 0.00 in/hr0.0 mm/hr 0.00 in0.0 mm
03:30 AM 32.2°F0.1°C 25.1°F-3.8°C 75% 1.8 mph N2.9 kmh N 5.0 mph8.0 kmh 30.11 in1019.6 mb 0.00 in0.0 mm 0.00 in/hr0.0 mm/hr 0.00 in0.0 mm
03:20 AM 32.1°F0.1°C 25.4°F-3.7°C 76% 1.3 mph SW2.1 kmh SW 4.0 mph6.4 kmh 30.11 in1019.6 mb 0.00 in0.0 mm 0.00 in/hr0.0 mm/hr 0.00 in0.0 mm
03:10 AM 32.0°F0.0°C 25.3°F-3.7°C 76% Calm Calm 1.0 mph1.6 kmh 30.11 in1019.6 mb 0.00 in0.0 mm 0.00 in/hr0.0 mm/hr 0.00 in0.0 mm
03:00 AM 32.0°F0.0°C 25.3°F-3.7°C 76% 1.6 mph NW2.6 kmh NW 4.0 mph6.4 kmh 30.11 in1019.6 mb 0.00 in0.0 mm 0.00 in/hr0.0 mm/hr 0.00 in0.0 mm
02:50 AM 32.3°F0.2°C 25.6°F-3.6°C 76% 0.7 mph WSW1.1 kmh WSW 3.0 mph4.8 kmh 30.11 in1019.6 mb 0.00 in0.0 mm 0.00 in/hr0.0 mm/hr 0.00 in0.0 mm
02:40 AM 32.6°F0.3°C 25.5°F-3.6°C 75% Calm Calm -- 30.11 in1019.6 mb 0.00 in0.0 mm 0.00 in/hr0.0 mm/hr 0.00 in0.0 mm
02:30 AM 32.7°F0.4°C 25.6°F-3.6°C 75% 0.3 mph WNW0.5 kmh WNW 1.0 mph1.6 kmh 30.11 in1019.6 mb 0.00 in0.0 mm 0.00 in/hr0.0 mm/hr 0.00 in0.0 mm
02:20 AM 32.7°F0.4°C 25.6°F-3.6°C 75% 1.1 mph W1.8 kmh W 4.0 mph6.4 kmh 30.11 in1019.6 mb 0.00 in0.0 mm 0.00 in/hr0.0 mm/hr 0.00 in0.0 mm
02:10 AM 32.3°F0.2°C 25.9°F-3.4°C 77% 2.1 mph NW3.4 kmh NW 9.0 mph14.5 kmh 30.11 in1019.6 mb 0.00 in0.0 mm 0.00 in/hr0.0 mm/hr 0.00 in0.0 mm
02:00 AM 32.3°F0.2°C 25.9°F-3.4°C 77% Calm Calm 2.0 mph3.2 kmh 30.11 in1019.6 mb 0.00 in0.0 mm 0.00 in/hr0.0 mm/hr 0.00 in0.0 mm
01:50 AM 32.3°F0.2°C 25.6°F-3.6°C 76% 0.1 mph NW0.2 kmh NW 1.0 mph1.6 kmh 30.11 in1019.6 mb 0.00 in0.0 mm 0.00 in/hr0.0 mm/hr 0.00 in0.0 mm
01:40 AM 32.4°F0.2°C 25.4°F-3.7°C 75% 0.1 mph NW0.2 kmh NW 1.0 mph1.6 kmh 30.11 in1019.6 mb 0.00 in0.0 mm 0.00 in/hr0.0 mm/hr 0.00 in0.0 mm
01:30 AM 32.7°F0.4°C 25.3°F-3.7°C 74% Calm Calm -- 30.11 in1019.6 mb 0.00 in0.0 mm 0.00 in/hr0.0 mm/hr 0.00 in0.0 mm
01:20 AM 33.0°F0.6°C 25.6°F-3.6°C 74% 1.4 mph NW2.3 kmh NW -- 30.11 in1019.6 mb 0.00 in0.0 mm 0.00 in/hr0.0 mm/hr 0.00 in0.0 mm
01:10 AM 33.3°F0.7°C 25.6°F-3.6°C 73% 0.4 mph W0.6 kmh W 3.0 mph4.8 kmh 30.11 in1019.6 mb 0.00 in0.0 mm 0.00 in/hr0.0 mm/hr 0.00 in0.0 mm
01:00 AM 33.4°F0.8°C 25.7°F-3.5°C 73% 2.8 mph W4.5 kmh W 9.0 mph14.5 kmh 30.10 in1019.3 mb 0.00 in0.0 mm 0.00 in/hr0.0 mm/hr 0.00 in0.0 mm
12:50 AM 33.5°F0.8°C 26.1°F-3.3°C 74% 3.5 mph NW5.6 kmh NW 8.0 mph12.9 kmh 30.10 in1019.3 mb 0.00 in0.0 mm 0.00 in/hr0.0 mm/hr 0.00 in0.0 mm
12:40 AM 33.5°F0.8°C 26.1°F-3.3°C 74% 5.8 mph NNW9.3 kmh NNW 11.0 mph17.7 kmh 30.10 in1019.3 mb 0.00 in0.0 mm 0.00 in/hr0.0 mm/hr 0.00 in0.0 mm
12:30 AM 33.5°F0.8°C 26.4°F-3.1°C 75% 3.5 mph NW5.6 kmh NW 7.0 mph11.3 kmh 30.10 in1019.3 mb 0.00 in0.0 mm 0.00 in/hr0.0 mm/hr 0.00 in0.0 mm
12:20 AM 33.7°F0.9°C 26.6°F-3.0°C 75% 3.2 mph WSW5.1 kmh WSW 6.0 mph9.7 kmh 30.10 in1019.3 mb 0.00 in0.0 mm 0.00 in/hr0.0 mm/hr 0.00 in0.0 mm
12:10 AM 33.9°F1.1°C 26.8°F-2.9°C 75% 2.5 mph WSW4.0 kmh WSW 5.0 mph8.0 kmh 30.10 in1019.3 mb 0.00 in0.0 mm 0.00 in/hr0.0 mm/hr 0.00 in0.0 mm
12:00 AM 34.2°F1.2°C 27.1°F-2.7°C 75% 4.4 mph NNW7.1 kmh NNW 8.0 mph12.9 kmh 30.10 in1019.3 mb 0.00 in0.0 mm 0.00 in/hr0.0 mm/hr 0.00 in0.0 mm